Pagina principale
METAR-TAF:

METAR-TAF

Aeroporti :

Parma, Italia

Aeroporto di Parma

latitudine: 44-49-17N, longitudine: 010-17-41E, altezza: 50 m

Osservazione

Il bollettino è stato emesso 47 minuti fa, alle 12:50 UTC
Vento 6 kt da sud-est
Temperature 17°C
Umidità 63%
Pressione 1012 hPa
Visibilità 10 km o più
Poco nuvoloso ad un'altezza di 800 ft
Nuvoloso ad un'altezza di 4000 ft

METAR: LIMP 191250Z 13006KT 9999 FEW008 BKN040 17/10 Q1012

Ora: 15:37 (13:37 UTC)

Previsione

Il bollettino è stato emesso 2 ore e 37 minuti fa, alle 11:00 UTC
Previsione valida dal 19 alle 12 UTC al 20 alle 12 UTC
Vento 5 kt da direzioni variabili
Visibilità: 7000 m
Nubi sparse ad un'altezza di 5000 ft
Temporaneamente
dal 20 alle 02 UTC al 20 alle 06 UTC
Visibilità: 3500 m
foschia

TAF: LIMP 191100Z 1912/2012 VRB05KT 7000 SCT050 TEMPO 2002/2006 3500 BR

Osservazioni e previsioni meteorologiche di più di 4000 aeroporti (messaggi METAR e TAF).

Le stazioni disponibili sono rappresentate dai dischi gialli e rossi sulla carta.

Puntare il mouse per vedere il nome della stazione.

Clicca sopra per visualizzare le osservazioni e previsioni meteorologiche.

Per cambiare la mappa : fare clic sui pulsanti verdi con una croce nera per ingrandire, il pulsante verde con un trattino per diminuire, o sulla freccia verde per le mappe adiacenti.


METAR-TAF: